Aérodrome :
LOGIN :

S'inscrire | Disclaimer

   EN    FR    IT 

 










Légende :    VFR   VFR Marginal   IFR   IFR Intensif   IFR Très Intensif
Visi : 
Plafond : 
>= 8 km
>= 3000ft
5 à 8 km
1000 à 3000 ft
1500m à 5 km
500 à 1000 ft
800 à 1500m
200 à 500 ft
< 800m
< 200 ft
Symboles :   Orages  Brouillard  Fortes neiges  Fortes précipitations  Vent > 20 kt
SIGMETs :   Divers  Orages  Givrage  Turbulence  Onde Orograph.  Cendres Volcan.






- Altitude de l'aérodrome : 681 ft
- Code IATA : LBA


EGNM - Leeds Bradford

DERNIER METAR :
  • 012320Z 21008KT 9999 -SHRA FEW016 SCT042 13/10 Q1014

METARs EXPIRÉS :
  • 012250Z 20009KT 9999 -SHRA FEW015 SCT040 13/10 Q1014
  • 011620Z 22007KT 190V260 9999 FEW015 SCT029 15/11 Q1014
  • 012150Z 21009KT 180V240 9999 FEW015 SCT040 13/10 Q1015
  • 012120Z 22006KT 9999 -SHRA FEW015 SCT040 13/11 Q1015
  • 012050Z 22007KT 9999 7000SW -SHRA SCT040 13/10 Q1015

TAF TAF EGNM
Valide du 01 à 18h jusqu'au 02 à 18h UTC


011654Z 0118/0218 20009KT 9999 SCT030
TEMPO 0121/0207 7000 RA SHRA BKN014
PROB30
TEMPO 0122/0202 4000 RADZ BKN006
PROB40
TEMPO 0123/0207 22016G26KT
PROB30
TEMPO 0202/0205 4000 +RA +SHRA BKN008
PROB40
TEMPO 0207/0218 7000 SHRA BKN014
ATIS : +44 113 250 9696 (x2489)



MET'MAP, la Météo Aéronautique d'un coup d'oeil ! - Copyright ORBIFLY Décembre 2007 - Disclaimer

ORBIFLY MET'MAP TEAM :

Programmation & Développement : Alexandra Zaïnal
Sur une idée originale de : Baudouin d'Aumeries
Soutien technique & logistique : Manuel Goepfert
Assistance : Marc-Olivier Méhu




SOURCES & CREDITS :

   NOAA